createdAt,value
2018-07-26T00:03:29.597Z,5.72
2018-07-26T00:08:34.571Z,5.47
2018-07-26T00:13:39.284Z,5.17
2018-07-26T00:18:44.046Z,7.20
2018-07-26T00:23:48.896Z,5.53
2018-07-26T00:28:53.574Z,6.17
2018-07-26T00:33:58.146Z,5.45
2018-07-26T00:39:02.947Z,5.22
2018-07-26T00:44:08.645Z,5.47
2018-07-26T00:49:13.374Z,5.50
2018-07-26T00:54:18.270Z,6.65
2018-07-26T00:59:23.059Z,5.55
2018-07-26T01:04:28.756Z,6.83
2018-07-26T01:09:33.457Z,6.20
2018-07-26T01:14:38.105Z,6.10
2018-07-26T01:19:42.786Z,5.37
2018-07-26T01:24:48.358Z,5.62
2018-07-26T01:29:52.970Z,6.97
2018-07-26T01:34:57.761Z,5.58
2018-07-26T01:40:02.710Z,7.25
2018-07-26T01:45:07.335Z,6.05
2018-07-26T01:50:11.941Z,5.50
2018-07-26T01:55:16.682Z,6.83
2018-07-26T02:00:21.416Z,7.33
2018-07-26T02:05:26.056Z,7.62
2018-07-26T02:10:31.003Z,5.72
2018-07-26T02:15:35.653Z,6.12
2018-07-26T02:20:40.973Z,6.37
2018-07-26T02:25:45.985Z,6.97
2018-07-26T02:30:50.870Z,8.58
2018-07-26T02:35:55.588Z,6.37
2018-07-26T02:41:00.226Z,7.50
2018-07-26T02:46:04.816Z,10.65
2018-07-26T02:51:09.602Z,11.75
2018-07-26T02:56:14.424Z,8.98
2018-07-26T03:01:19.477Z,6.75
2018-07-26T03:06:24.394Z,9.00
2018-07-26T03:11:29.474Z,9.05
2018-07-26T03:16:34.502Z,7.83
2018-07-26T03:21:39.262Z,8.18
2018-07-26T03:26:43.859Z,9.53
2018-07-26T03:31:48.611Z,9.68
2018-07-26T03:36:53.598Z,8.55
2018-07-26T03:41:58.586Z,10.28
2018-07-26T03:47:03.548Z,10.15
2018-07-26T03:52:08.771Z,9.25
2018-07-26T03:57:14.659Z,9.13
2018-07-26T04:02:19.709Z,8.75
2018-07-26T04:07:24.291Z,9.30
2018-07-26T04:12:29.020Z,8.75
2018-07-26T04:17:33.729Z,10.23
2018-07-26T04:22:38.734Z,9.83
2018-07-26T04:27:43.476Z,9.30
2018-07-26T04:32:48.097Z,9.28
2018-07-26T04:37:53.040Z,7.80
2018-07-26T04:42:57.824Z,8.50
2018-07-26T04:48:02.504Z,9.13
2018-07-26T04:53:07.332Z,7.67
2018-07-26T04:58:12.017Z,9.33
2018-07-26T05:03:16.745Z,9.90
2018-07-26T05:08:21.578Z,8.55
2018-07-26T05:13:26.304Z,7.78
2018-07-26T05:18:31.226Z,7.53
2018-07-26T05:23:35.851Z,7.67
2018-07-26T05:28:40.549Z,8.98
2018-07-26T05:33:45.189Z,8.70
2018-07-26T05:38:49.905Z,7.15
2018-07-26T05:43:55.555Z,6.15
2018-07-26T05:49:00.297Z,7.28
2018-07-26T05:54:05.123Z,9.38
2018-07-26T05:59:09.956Z,6.60
2018-07-26T06:04:14.786Z,5.53
2018-07-26T06:09:19.820Z,7.80
2018-07-26T06:14:24.577Z,6.62
2018-07-26T06:19:29.452Z,6.42
2018-07-26T06:24:34.219Z,8.00
2018-07-26T06:29:38.973Z,8.28
2018-07-26T06:34:43.797Z,5.95
2018-07-26T06:39:48.888Z,7.17
2018-07-26T06:44:53.609Z,5.83
2018-07-26T06:49:58.452Z,5.28
2018-07-26T06:55:03.068Z,7.42
2018-07-26T07:00:09.020Z,6.92
2018-07-26T07:05:14.361Z,8.15
2018-07-26T07:10:19.101Z,7.12
2018-07-26T07:15:23.898Z,5.80
2018-07-26T07:20:28.765Z,7.85
2018-07-26T07:25:33.657Z,4.92
2018-07-26T07:30:38.179Z,7.35
2018-07-26T07:35:43.208Z,4.47
2018-07-26T07:40:48.047Z,7.72
2018-07-26T07:45:59.350Z,6.05
2018-07-26T07:51:04.318Z,5.78
2018-07-26T07:56:09.040Z,7.08
2018-07-26T08:08:36.314Z,6.03
2018-07-26T08:13:40.956Z,6.90
2018-07-26T08:18:46.214Z,6.12
2018-07-26T08:23:50.796Z,6.62
2018-07-26T08:28:55.267Z,5.70
2018-07-26T08:33:59.903Z,6.33
2018-07-26T08:39:06.942Z,6.47
2018-07-26T08:44:11.731Z,7.05
2018-07-26T08:49:16.493Z,5.75
2018-07-26T08:54:21.434Z,6.87
2018-07-26T08:59:26.003Z,6.72
2018-07-26T09:04:30.777Z,6.45
2018-07-26T09:09:35.712Z,6.80
2018-07-26T09:14:40.247Z,5.92
2018-07-26T09:19:44.967Z,7.28
2018-07-26T09:24:50.876Z,5.95
2018-07-26T09:29:55.629Z,6.58
2018-07-26T09:35:00.338Z,8.90
2018-07-26T09:40:05.372Z,6.55
2018-07-26T09:45:09.995Z,6.90
2018-07-26T09:50:15.780Z,7.10
2018-07-26T09:55:20.540Z,6.20
2018-07-26T10:00:30.053Z,7.00
2018-07-26T10:05:34.714Z,5.97
2018-07-26T10:10:39.614Z,6.80
2018-07-26T10:15:44.260Z,7.00
2018-07-26T10:20:48.872Z,6.60
2018-07-26T10:25:53.749Z,6.83
2018-07-26T10:30:58.516Z,6.35
2018-07-26T10:36:03.901Z,7.42
2018-07-26T10:41:08.725Z,6.08
2018-07-26T10:46:13.668Z,8.10
2018-07-26T10:51:18.516Z,7.80
2018-07-26T10:56:23.475Z,6.25
2018-07-26T11:01:28.583Z,4.53
2018-07-26T11:06:33.270Z,4.45
2018-07-26T11:11:38.205Z,2.40
2018-07-26T11:16:43.026Z,4.37
2018-07-26T11:21:48.015Z,4.50
2018-07-26T11:26:53.369Z,3.72
2018-07-26T11:31:59.032Z,4.12
2018-07-26T11:37:03.960Z,5.85
2018-07-26T11:42:08.914Z,2.08
2018-07-26T11:47:13.905Z,3.00
2018-07-26T11:52:19.211Z,2.02
2018-07-26T11:57:23.999Z,3.42
2018-07-26T12:02:29.721Z,2.58
2018-07-26T12:07:35.465Z,4.87
2018-07-26T12:12:40.542Z,2.58
2018-07-26T12:17:45.743Z,2.02
2018-07-26T12:22:50.722Z,2.75
2018-07-26T12:27:56.201Z,2.45
2018-07-26T12:33:00.903Z,2.10
2018-07-26T12:38:05.543Z,2.90
2018-07-26T12:43:10.364Z,2.02
2018-07-26T12:48:15.155Z,1.70
2018-07-26T12:53:19.831Z,2.15
2018-07-26T12:58:24.697Z,2.70
2018-07-26T13:03:29.618Z,5.28
2018-07-26T13:08:34.513Z,2.72
2018-07-26T13:13:39.206Z,3.42
2018-07-26T13:18:43.964Z,3.87
2018-07-26T13:23:49.129Z,2.30
2018-07-26T13:28:53.448Z,1.62
2018-07-26T13:33:58.287Z,3.65
2018-07-26T13:39:04.529Z,2.72
2018-07-26T13:44:09.348Z,1.80
2018-07-26T13:49:14.102Z,4.28
2018-07-26T13:54:19.196Z,3.10
2018-07-26T13:59:24.006Z,2.77
2018-07-26T14:04:28.751Z,2.50
2018-07-26T14:09:33.550Z,3.45
2018-07-26T14:14:38.305Z,4.08
2018-07-26T14:19:42.994Z,3.20
2018-07-26T14:24:47.620Z,1.72
2018-07-26T14:29:52.124Z,2.20
2018-07-26T14:34:56.798Z,3.12
2018-07-26T14:40:01.677Z,1.90
2018-07-26T14:45:06.623Z,2.22
2018-07-26T14:50:11.650Z,1.50
2018-07-26T14:55:16.466Z,1.75
2018-07-26T15:00:21.237Z,2.60
2018-07-26T15:05:26.105Z,2.62
2018-07-26T15:10:31.047Z,2.90
2018-07-26T15:15:35.872Z,2.50
2018-07-26T15:20:41.107Z,3.30
2018-07-26T15:25:45.601Z,2.22
2018-07-26T15:30:50.559Z,3.17
2018-07-26T15:35:55.706Z,2.90
2018-07-26T15:41:00.511Z,5.50
2018-07-26T15:46:05.564Z,2.12
2018-07-26T15:51:10.422Z,2.95
2018-07-26T15:56:15.259Z,4.33
2018-07-26T16:01:19.969Z,2.70
2018-07-26T16:06:24.910Z,2.22
2018-07-26T16:11:29.780Z,3.58
2018-07-26T16:16:34.930Z,2.30
2018-07-26T16:21:40.009Z,2.47
2018-07-26T16:26:44.803Z,2.87
2018-07-26T16:31:49.660Z,3.35
2018-07-26T16:36:54.529Z,3.33
2018-07-26T16:41:59.883Z,2.65
2018-07-26T16:47:04.276Z,5.75
2018-07-26T16:52:08.813Z,4.47
2018-07-26T16:57:13.620Z,3.67
2018-07-26T17:02:18.589Z,2.72
2018-07-26T17:07:23.528Z,2.52
2018-07-26T17:12:28.725Z,3.12
2018-07-26T17:17:33.504Z,2.27
2018-07-26T17:22:38.717Z,2.70
2018-07-26T17:27:43.711Z,2.90
2018-07-26T17:32:48.701Z,4.62
2018-07-26T17:37:54.394Z,4.10
2018-07-26T17:42:59.195Z,2.62
2018-07-26T17:48:04.015Z,2.83
2018-07-26T17:53:08.927Z,3.58
2018-07-26T17:58:14.275Z,3.35
2018-07-26T18:03:18.948Z,3.25
2018-07-26T18:08:23.756Z,7.42
2018-07-26T18:13:28.716Z,3.22
2018-07-26T18:18:33.696Z,4.25
2018-07-26T18:23:38.565Z,2.35
2018-07-26T18:28:43.027Z,5.00
2018-07-26T18:33:47.662Z,3.75
2018-07-26T18:38:53.473Z,2.47
2018-07-26T18:43:58.357Z,2.55
2018-07-26T18:49:02.776Z,2.70
2018-07-26T18:54:07.566Z,2.33
2018-07-26T18:59:12.512Z,4.10
2018-07-26T19:04:17.376Z,3.20
2018-07-26T19:09:22.622Z,5.72
2018-07-26T19:14:28.101Z,3.22
2018-07-26T19:19:32.891Z,5.75
2018-07-26T19:24:38.462Z,3.98
2018-07-26T19:29:43.097Z,4.22
2018-07-26T19:34:47.664Z,4.53
2018-07-26T19:39:52.224Z,4.97
2018-07-26T19:44:56.957Z,4.25
2018-07-26T19:50:01.925Z,4.58
2018-07-26T19:55:08.336Z,3.55
2018-07-26T20:00:13.746Z,4.97
2018-07-26T20:05:18.658Z,3.25
2018-07-26T20:10:23.503Z,3.95
2018-07-26T20:15:28.257Z,3.30
2018-07-26T20:20:32.955Z,3.52
2018-07-26T20:25:40.866Z,3.85
2018-07-26T20:30:46.114Z,5.50
2018-07-26T20:35:50.792Z,4.60
2018-07-26T20:40:56.045Z,4.62
2018-07-26T20:46:00.899Z,3.25
2018-07-26T20:51:05.496Z,3.98
2018-07-26T20:56:10.205Z,5.80
2018-07-26T21:01:15.425Z,3.70
2018-07-26T21:06:19.621Z,6.50
2018-07-26T21:11:24.349Z,4.03
2018-07-26T21:16:29.396Z,5.30
2018-07-26T21:21:34.755Z,3.95
2018-07-26T21:26:49.848Z,6.33
2018-07-26T21:31:55.181Z,4.28
2018-07-26T21:37:00.191Z,4.12
2018-07-26T21:42:05.026Z,4.05
2018-07-26T21:47:09.512Z,4.25
2018-07-26T21:52:14.245Z,4.28
2018-07-26T21:57:19.048Z,5.97
2018-07-26T22:02:23.875Z,3.20
2018-07-26T22:07:29.051Z,5.08
2018-07-26T22:12:33.917Z,5.25
2018-07-26T22:17:38.469Z,6.17
2018-07-26T22:22:43.548Z,3.87
2018-07-26T22:27:48.738Z,5.65
2018-07-26T22:32:53.473Z,5.67
2018-07-26T22:37:57.954Z,5.35
2018-07-26T22:43:03.612Z,4.67
2018-07-26T22:48:08.583Z,4.12
2018-07-26T22:53:13.339Z,6.80
2018-07-26T22:58:17.948Z,4.72
2018-07-26T23:03:22.506Z,5.78
2018-07-26T23:08:27.228Z,5.70
2018-07-26T23:13:32.014Z,4.78
2018-07-26T23:18:36.521Z,6.00
2018-07-26T23:23:41.447Z,3.83
2018-07-26T23:28:46.231Z,5.20
2018-07-26T23:33:51.277Z,4.65
2018-07-26T23:38:56.271Z,3.75
2018-07-26T23:44:01.058Z,5.33
2018-07-26T23:49:05.776Z,4.67
2018-07-26T23:54:10.485Z,4.35
2018-07-26T23:59:15.027Z,4.05
